Time;durP1;ratioP1;P1;durP2;ratioP2;P2;SDS_P1;SDS_P2;PMS_P1;PMS_P2;Temp;Humidity;BMP_temperature;BMP_pressure;BME280_temperature;BME280_humidity;BME280_pressure;Samples;Min_cycle;Max_cycle;Signal;HPM_P1;HPM_P2
2023/08/07 00:01:11;;;;;;;18.67;4.37;;;;;;;;;;5068331;28;20064;-74
2023/08/07 00:03:37;;;;;;;20.97;5.07;;;;;;;;;;5067377;28;20108;-75
2023/08/07 00:06:06;;;;;;;16.30;3.97;;;;;;;;;;5067505;28;20046;-75
2023/08/07 00:08:33;;;;;;;22.23;4.63;;;;;;;;;;5068750;28;20024;-78
2023/08/07 00:11:06;;;;;;;20.10;4.40;;;;;;;;;;5067055;28;20017;-75
2023/08/07 00:13:34;;;;;;;19.27;4.60;;;;;;;;;;5066647;28;20055;-74
2023/08/07 00:16:02;;;;;;;22.27;4.53;;;;;;;;;;5068703;28;20014;-73
2023/08/07 00:18:34;;;;;;;22.47;4.37;;;;;;;;;;5067903;28;20033;-76
2023/08/07 00:21:00;;;;;;;20.13;5.13;;;;;;;;;;5068992;28;20025;-74
2023/08/07 00:23:26;;;;;;;15.00;4.97;;;;;;;;;;5068650;28;20288;-76
2023/08/07 00:25:54;;;;;;;21.40;4.87;;;;;;;;;;5067600;28;20495;-74
2023/08/07 00:28:23;;;;;;;21.13;4.63;;;;;;;;;;5083964;28;20090;-76
2023/08/07 00:30:49;;;;;;;13.50;4.70;;;;;;;;;;5070542;28;20053;-75
2023/08/07 00:33:15;;;;;;;23.03;5.30;;;;;;;;;;5071585;28;20026;-77
2023/08/07 00:35:41;;;;;;;15.63;4.63;;;;;;;;;;5070951;28;20037;-75
2023/08/07 00:38:07;;;;;;;20.40;4.50;;;;;;;;;;5070514;28;20059;-75
2023/08/07 00:40:39;;;;;;;27.83;6.03;;;;;;;;;;5073933;28;20144;-75
2023/08/07 00:43:06;;;;;;;18.17;5.90;;;;;;;;;;5086207;28;20152;-75
2023/08/07 00:45:38;;;;;;;12.53;4.60;;;;;;;;;;5071276;28;20029;-75
2023/08/07 00:48:06;;;;;;;23.63;5.72;;;;;;;;;;5069528;28;20059;-76
2023/08/07 00:50:32;;;;;;;19.83;5.17;;;;;;;;;;5072415;28;20034;-74
2023/08/07 00:52:59;;;;;;;13.90;5.40;;;;;;;;;;5072067;28;20009;-76
2023/08/07 00:55:25;;;;;;;22.80;5.53;;;;;;;;;;5071152;28;20028;-75
2023/08/07 00:57:51;;;;;;;20.07;5.83;;;;;;;;;;5074459;28;20059;-77
2023/08/07 01:00:18;;;;;;;26.53;5.00;;;;;;;;;;5075135;28;20021;-74
2023/08/07 01:02:44;;;;;;;20.00;5.77;;;;;;;;;;5073326;28;20040;-76
2023/08/07 01:05:12;;;;;;;17.47;5.30;;;;;;;;;;5072759;28;20094;-75
2023/08/07 01:07:38;;;;;;;13.50;5.50;;;;;;;;;;5071917;28;20017;-74
2023/08/07 01:10:06;;;;;;;22.17;5.20;;;;;;;;;;5070661;28;20029;-76
2023/08/07 01:12:36;;;;;;;28.70;6.97;;;;;;;;;;5072149;28;20040;-75
2023/08/07 01:15:13;;;;;;;18.07;5.27;;;;;;;;;;5070460;28;20021;-73
2023/08/07 01:17:39;;;;;;;15.77;5.47;;;;;;;;;;5072633;28;20029;-76
2023/08/07 01:20:06;;;;;;;31.27;7.60;;;;;;;;;;5071678;28;20056;-75
2023/08/07 01:22:32;;;;;;;24.20;6.27;;;;;;;;;;5071549;28;20056;-74
2023/08/07 01:25:00;;;;;;;24.73;6.70;;;;;;;;;;5068613;28;20013;-75
2023/08/07 01:27:29;;;;;;;20.90;5.90;;;;;;;;;;5072870;28;20088;-75
2023/08/07 01:29:58;;;;;;;27.67;6.00;;;;;;;;;;5070217;28;20056;-75
2023/08/07 01:32:39;;;;;;;17.40;4.40;;;;;;;;;;5069659;28;20033;-74
2023/08/07 01:35:06;;;;;;;23.97;5.13;;;;;;;;;;5072460;28;20067;-75
2023/08/07 01:37:37;;;;;;;21.50;5.17;;;;;;;;;;5070879;28;20070;-78
2023/08/07 01:40:04;;;;;;;17.30;4.40;;;;;;;;;;5073319;28;20021;-77
2023/08/07 01:42:33;;;;;;;20.13;5.53;;;;;;;;;;5070760;28;20254;-75
2023/08/07 01:44:59;;;;;;;16.40;4.50;;;;;;;;;;5071351;28;20084;-76
2023/08/07 01:47:25;;;;;;;23.37;4.03;;;;;;;;;;5071094;28;20040;-76
2023/08/07 01:49:51;;;;;;;16.30;5.00;;;;;;;;;;5071489;28;20085;-76
2023/08/07 01:52:17;;;;;;;22.93;5.20;;;;;;;;;;5068439;28;20024;-75
2023/08/07 01:54:43;;;;;;;18.23;4.43;;;;;;;;;;5069835;28;20022;-75
2023/08/07 01:57:11;;;;;;;14.20;4.43;;;;;;;;;;5072220;28;20053;-76
2023/08/07 01:59:37;;;;;;;12.70;4.17;;;;;;;;;;5067023;28;20017;-77
2023/08/07 02:02:03;;;;;;;18.43;4.30;;;;;;;;;;5071168;28;20103;-75
2023/08/07 02:04:29;;;;;;;18.83;5.03;;;;;;;;;;5071487;28;20039;-75
2023/08/07 02:06:55;;;;;;;16.33;4.30;;;;;;;;;;5069588;28;20020;-76
2023/08/07 02:09:22;;;;;;;24.00;5.10;;;;;;;;;;5085412;28;20029;-75
2023/08/07 02:11:48;;;;;;;14.73;4.17;;;;;;;;;;5069544;28;20046;-75
2023/08/07 02:14:14;;;;;;;17.33;3.80;;;;;;;;;;5068954;28;20255;-75
2023/08/07 02:16:40;;;;;;;16.97;4.30;;;;;;;;;;5069804;28;20056;-77
2023/08/07 02:19:08;;;;;;;16.63;4.43;;;;;;;;;;5066662;28;20033;-76
2023/08/07 02:21:36;;;;;;;12.63;4.00;;;;;;;;;;5070322;28;20021;-74
2023/08/07 02:24:03;;;;;;;23.47;3.93;;;;;;;;;;5068809;28;20047;-75
2023/08/07 02:26:28;;;;;;;21.27;4.97;;;;;;;;;;5066287;28;20037;-75
2023/08/07 02:28:57;;;;;;;15.63;4.63;;;;;;;;;;5067482;28;20113;-76
2023/08/07 02:31:23;;;;;;;16.23;3.53;;;;;;;;;;5086572;28;20021;-76
2023/08/07 02:33:49;;;;;;;15.87;3.57;;;;;;;;;;5069779;28;20028;-73
2023/08/07 02:36:15;;;;;;;14.70;3.87;;;;;;;;;;5073348;28;20032;-74
2023/08/07 02:38:41;;;;;;;19.33;5.00;;;;;;;;;;5068008;28;20033;-75
2023/08/07 02:41:09;;;;;;;13.43;4.30;;;;;;;;;;5067413;28;20021;-74
2023/08/07 02:43:35;;;;;;;23.87;4.40;;;;;;;;;;5067718;28;20048;-75
2023/08/07 02:46:01;;;;;;;21.60;4.30;;;;;;;;;;5069473;28;20017;-76
2023/08/07 02:48:27;;;;;;;30.23;5.23;;;;;;;;;;5065793;28;20033;-76
2023/08/07 02:50:58;;;;;;;23.67;5.63;;;;;;;;;;5069904;28;20043;-77
2023/08/07 02:53:26;;;;;;;23.97;5.47;;;;;;;;;;5070103;28;20033;-74
2023/08/07 02:55:52;;;;;;;17.60;5.47;;;;;;;;;;5069166;28;20047;-74
2023/08/07 02:58:18;;;;;;;22.33;5.43;;;;;;;;;;5067958;28;20045;-75
2023/08/07 03:00:47;;;;;;;17.37;5.57;;;;;;;;;;5067282;28;20033;-75
2023/08/07 03:03:13;;;;;;;30.93;6.43;;;;;;;;;;5070628;28;20013;-76
2023/08/07 03:05:38;;;;;;;35.97;6.57;;;;;;;;;;5070049;28;20013;-74
2023/08/07 03:08:04;;;;;;;24.00;5.37;;;;;;;;;;5071899;28;20055;-74
2023/08/07 03:10:30;;;;;;;16.40;5.30;;;;;;;;;;5068846;28;20048;-73
2023/08/07 03:12:56;;;;;;;26.20;4.93;;;;;;;;;;5068452;28;20083;-74
2023/08/07 03:15:22;;;;;;;27.93;5.87;;;;;;;;;;5068517;28;20147;-75
2023/08/07 03:17:48;;;;;;;24.53;5.73;;;;;;;;;;5069962;28;20226;-73
2023/08/07 03:20:14;;;;;;;31.73;6.30;;;;;;;;;;5069531;28;20032;-74
2023/08/07 03:22:40;;;;;;;17.47;5.27;;;;;;;;;;5070108;28;20033;-75
2023/08/07 03:25:06;;;;;;;23.57;5.60;;;;;;;;;;5082155;28;20043;-75
2023/08/07 03:27:32;;;;;;;18.63;5.60;;;;;;;;;;5069472;28;20033;-73
2023/08/07 03:29:58;;;;;;;26.63;6.10;;;;;;;;;;5068076;28;20021;-75
2023/08/07 03:32:24;;;;;;;25.77;5.90;;;;;;;;;;5068979;28;20021;-74
2023/08/07 03:34:53;;;;;;;19.97;4.47;;;;;;;;;;5079832;28;20033;-76
2023/08/07 03:37:19;;;;;;;20.57;5.33;;;;;;;;;;5066931;28;20055;-74
2023/08/07 03:39:48;;;;;;;19.53;5.30;;;;;;;;;;5067906;28;20021;-75
2023/08/07 03:42:15;;;;;;;20.67;4.73;;;;;;;;;;5068549;28;20017;-77
2023/08/07 03:44:41;;;;;;;21.97;5.73;;;;;;;;;;5068085;28;20059;-74
2023/08/07 03:47:07;;;;;;;19.27;5.63;;;;;;;;;;5068899;28;20025;-75
2023/08/07 03:49:33;;;;;;;18.27;6.30;;;;;;;;;;5068475;28;20013;-75
2023/08/07 03:51:59;;;;;;;21.07;5.83;;;;;;;;;;5069663;28;20021;-73
2023/08/07 03:54:25;;;;;;;19.10;5.77;;;;;;;;;;5066611;28;20021;-75
2023/08/07 03:56:51;;;;;;;18.67;5.63;;;;;;;;;;5066574;28;20029;-75
2023/08/07 03:59:17;;;;;;;19.17;5.63;;;;;;;;;;5065739;28;20059;-79
2023/08/07 04:01:44;;;;;;;18.43;5.67;;;;;;;;;;5066682;28;20033;-74
2023/08/07 04:04:10;;;;;;;16.23;5.13;;;;;;;;;;5066428;28;20043;-75
2023/08/07 04:06:36;;;;;;;20.17;6.10;;;;;;;;;;5066505;28;20571;-73
2023/08/07 04:09:03;;;;;;;17.30;5.73;;;;;;;;;;5066433;28;20048;-74
2023/08/07 04:11:29;;;;;;;12.97;5.20;;;;;;;;;;5068447;28;20022;-75
2023/08/07 04:13:58;;;;;;;21.60;6.13;;;;;;;;;;5068778;28;20037;-74
2023/08/07 04:16:24;;;;;;;18.10;5.27;;;;;;;;;;5065712;28;20017;-76
2023/08/07 04:18:51;;;;;;;27.67;6.73;;;;;;;;;;5067325;28;20093;-75
2023/08/07 04:21:19;;;;;;;26.57;7.10;;;;;;;;;;5080568;28;20093;-76
2023/08/07 04:23:48;;;;;;;20.17;7.10;;;;;;;;;;5066121;28;20085;-75
2023/08/07 04:26:14;;;;;;;17.60;5.87;;;;;;;;;;5066153;28;20029;-74
2023/08/07 04:28:42;;;;;;;17.60;5.93;;;;;;;;;;5065955;28;20031;-75
2023/08/07 04:31:08;;;;;;;23.00;6.37;;;;;;;;;;5067434;28;20014;-76
2023/08/07 04:33:36;;;;;;;15.63;5.23;;;;;;;;;;5068365;28;20040;-73
2023/08/07 04:36:02;;;;;;;19.60;6.27;;;;;;;;;;5070327;28;20024;-74
2023/08/07 04:38:28;;;;;;;16.83;5.20;;;;;;;;;;5068560;28;20128;-77
2023/08/07 04:40:54;;;;;;;17.57;5.50;;;;;;;;;;5069259;28;20020;-75
2023/08/07 04:43:22;;;;;;;12.87;5.60;;;;;;;;;;5070064;28;20033;-74
2023/08/07 04:45:48;;;;;;;15.97;6.20;;;;;;;;;;5068397;28;20029;-74
2023/08/07 04:48:17;;;;;;;19.60;5.67;;;;;;;;;;5065996;28;20045;-75
2023/08/07 04:50:43;;;;;;;16.47;5.30;;;;;;;;;;5067658;28;20033;-75
2023/08/07 04:53:09;;;;;;;15.83;5.50;;;;;;;;;;5066925;28;20081;-74
2023/08/07 04:55:35;;;;;;;24.00;6.47;;;;;;;;;;5064858;28;20022;-75
2023/08/07 04:58:03;;;;;;;18.03;5.30;;;;;;;;;;5064147;28;20041;-74
2023/08/07 05:00:29;;;;;;;15.60;5.00;;;;;;;;;;5066954;28;20084;-76
2023/08/07 05:02:57;;;;;;;13.83;5.23;;;;;;;;;;5065718;28;20043;-77
2023/08/07 05:05:23;;;;;;;22.40;5.57;;;;;;;;;;5068249;28;20049;-76
2023/08/07 05:07:49;;;;;;;23.30;5.70;;;;;;;;;;5064119;28;20085;-74
2023/08/07 05:10:16;;;;;;;17.20;5.10;;;;;;;;;;5068845;28;20040;-75
2023/08/07 05:12:44;;;;;;;15.13;5.47;;;;;;;;;;5065481;28;20048;-74
2023/08/07 05:15:10;;;;;;;25.30;5.37;;;;;;;;;;5066769;28;20044;-72
2023/08/07 05:17:36;;;;;;;20.40;5.67;;;;;;;;;;5070538;28;20033;-77
2023/08/07 05:20:02;;;;;;;22.03;5.43;;;;;;;;;;5068678;28;20055;-77
2023/08/07 05:22:28;;;;;;;14.33;4.13;;;;;;;;;;5068877;28;20030;-75
2023/08/07 05:24:54;;;;;;;14.87;4.50;;;;;;;;;;5070186;28;20052;-75
2023/08/07 05:27:22;;;;;;;14.03;4.93;;;;;;;;;;5070704;28;20029;-75
2023/08/07 05:29:48;;;;;;;14.43;4.20;;;;;;;;;;5083664;28;20017;-77
2023/08/07 05:32:15;;;;;;;14.90;3.87;;;;;;;;;;5072423;28;20020;-76
2023/08/07 05:34:41;;;;;;;17.20;4.37;;;;;;;;;;5070527;28;20029;-75
2023/08/07 05:37:07;;;;;;;13.97;3.80;;;;;;;;;;5070132;28;20067;-76
2023/08/07 05:39:34;;;;;;;13.23;3.97;;;;;;;;;;5068399;28;20033;-75
2023/08/07 05:42:00;;;;;;;21.90;4.60;;;;;;;;;;5069874;28;20014;-76
2023/08/07 05:44:26;;;;;;;13.27;3.30;;;;;;;;;;5071872;28;20043;-76
2023/08/07 05:46:54;;;;;;;14.57;5.13;;;;;;;;;;5068082;28;20033;-74
2023/08/07 05:49:20;;;;;;;14.07;3.83;;;;;;;;;;5066578;28;20024;-77
2023/08/07 05:51:46;;;;;;;8.10;3.07;;;;;;;;;;5070696;28;20048;-76
2023/08/07 05:54:15;;;;;;;14.40;4.07;;;;;;;;;;5066317;28;20068;-78
2023/08/07 05:56:41;;;;;;;15.37;3.40;;;;;;;;;;5068097;28;20034;-78
2023/08/07 05:59:07;;;;;;;14.53;3.90;;;;;;;;;;5068911;28;20728;-76
2023/08/07 06:01:33;;;;;;;15.03;3.93;;;;;;;;;;5080162;28;20037;-76
2023/08/07 06:03:59;;;;;;;13.27;3.73;;;;;;;;;;5082625;28;20037;-76
2023/08/07 06:06:27;;;;;;;15.83;4.27;;;;;;;;;;5068406;28;20029;-76
2023/08/07 06:08:56;;;;;;;20.67;4.40;;;;;;;;;;5066821;28;20052;-76
2023/08/07 06:11:26;;;;;;;21.87;5.13;;;;;;;;;;5067335;28;20009;-75
2023/08/07 06:13:52;;;;;;;21.03;5.50;;;;;;;;;;5064510;28;20041;-80
2023/08/07 06:16:21;;;;;;;14.27;3.47;;;;;;;;;;5061819;28;20043;-77
2023/08/07 06:18:47;;;;;;;17.30;4.43;;;;;;;;;;5077096;28;20127;-76
2023/08/07 06:21:12;;;;;;;16.80;4.20;;;;;;;;;;5065285;28;20029;-76
2023/08/07 06:23:38;;;;;;;9.80;4.10;;;;;;;;;;5064829;28;20056;-75
2023/08/07 06:26:04;;;;;;;16.67;4.97;;;;;;;;;;5066049;28;20043;-77
2023/08/07 06:28:34;;;;;;;17.03;6.13;;;;;;;;;;5079083;28;20033;-77
2023/08/07 06:31:01;;;;;;;19.17;5.60;;;;;;;;;;5082021;28;20067;-75
2023/08/07 06:33:27;;;;;;;16.03;4.93;;;;;;;;;;5070274;28;20100;-78
2023/08/07 06:35:53;;;;;;;15.37;4.57;;;;;;;;;;5071840;28;20049;-77
2023/08/07 06:38:19;;;;;;;22.03;5.10;;;;;;;;;;5069662;28;20038;-75
2023/08/07 06:40:45;;;;;;;17.47;4.53;;;;;;;;;;5071870;28;20094;-74
2023/08/07 06:43:11;;;;;;;16.27;5.03;;;;;;;;;;5069994;28;20043;-74
2023/08/07 06:45:39;;;;;;;17.97;4.77;;;;;;;;;;5069995;28;20026;-74
2023/08/07 06:48:05;;;;;;;15.00;4.70;;;;;;;;;;5070449;28;20033;-74
2023/08/07 06:50:31;;;;;;;15.90;4.47;;;;;;;;;;5069384;28;20013;-74
2023/08/07 06:53:00;;;;;;;21.47;5.27;;;;;;;;;;5071723;28;20032;-75
2023/08/07 06:55:26;;;;;;;20.83;5.17;;;;;;;;;;5070249;28;20020;-74
2023/08/07 06:57:56;;;;;;;26.87;5.73;;;;;;;;;;5070598;28;20040;-74
2023/08/07 07:00:22;;;;;;;18.33;5.53;;;;;;;;;;5085116;28;20493;-76
2023/08/07 07:02:48;;;;;;;23.87;5.90;;;;;;;;;;5069373;28;20121;-75
2023/08/07 07:05:16;;;;;;;22.57;5.87;;;;;;;;;;5070688;28;20013;-75
2023/08/07 07:07:42;;;;;;;18.93;5.50;;;;;;;;;;5069664;28;20033;-75
2023/08/07 07:10:08;;;;;;;17.20;5.03;;;;;;;;;;5069596;28;20055;-74
2023/08/07 07:12:34;;;;;;;18.53;5.23;;;;;;;;;;5068770;28;20028;-74
2023/08/07 07:15:00;;;;;;;19.47;5.23;;;;;;;;;;5068222;28;20242;-75
2023/08/07 07:17:26;;;;;;;19.00;5.23;;;;;;;;;;5068436;28;20036;-74
2023/08/07 07:19:53;;;;;;;18.13;4.80;;;;;;;;;;5067738;28;20032;-74
2023/08/07 07:22:19;;;;;;;17.17;5.60;;;;;;;;;;5068270;28;20029;-76
2023/08/07 07:24:45;;;;;;;15.90;5.30;;;;;;;;;;5069813;28;20052;-74
2023/08/07 07:27:11;;;;;;;18.97;5.23;;;;;;;;;;5068100;28;20044;-75
2023/08/07 07:29:39;;;;;;;26.40;5.90;;;;;;;;;;5067763;28;20009;-76
2023/08/07 07:32:08;;;;;;;18.93;6.07;;;;;;;;;;5068879;28;20047;-75
2023/08/07 07:34:34;;;;;;;15.40;5.10;;;;;;;;;;5067031;28;20013;-74
2023/08/07 07:37:00;;;;;;;14.83;5.60;;;;;;;;;;5068524;28;20031;-75
2023/08/07 07:39:28;;;;;;;21.40;5.97;;;;;;;;;;5067867;28;20060;-74
2023/08/07 07:41:54;;;;;;;21.23;5.83;;;;;;;;;;5071994;28;20013;-74
2023/08/07 07:44:20;;;;;;;19.37;5.27;;;;;;;;;;5070327;28;20032;-77
2023/08/07 07:46:46;;;;;;;15.73;5.77;;;;;;;;;;5066566;28;20024;-75
2023/08/07 07:49:12;;;;;;;17.80;5.43;;;;;;;;;;5069826;28;20059;-76
2023/08/07 07:51:44;;;;;;;23.23;5.93;;;;;;;;;;5067989;28;20028;-75
2023/08/07 07:54:10;;;;;;;13.38;5.38;;;;;;;;;;5070250;28;20049;-74
2023/08/07 07:56:39;;;;;;;19.93;5.07;;;;;;;;;;5083525;28;20049;-74
2023/08/07 07:59:05;;;;;;;14.50;4.90;;;;;;;;;;5069473;28;20033;-74
2023/08/07 08:01:31;;;;;;;23.53;5.60;;;;;;;;;;5068673;28;20033;-75
2023/08/07 08:03:57;;;;;;;40.67;6.90;;;;;;;;;;5066491;28;20016;-75
2023/08/07 08:06:22;;;;;;;19.37;4.50;;;;;;;;;;5069531;28;20017;-75
2023/08/07 08:08:48;;;;;;;13.60;4.70;;;;;;;;;;5068970;28;20014;-74
2023/08/07 08:11:15;;;;;;;12.73;4.90;;;;;;;;;;5083198;28;20036;-75
2023/08/07 08:13:41;;;;;;;13.07;4.70;;;;;;;;;;5081997;28;20043;-76
2023/08/07 08:16:07;;;;;;;14.87;4.27;;;;;;;;;;5068991;28;20048;-75
2023/08/07 08:18:33;;;;;;;19.87;5.03;;;;;;;;;;5069592;28;20040;-75
2023/08/07 08:21:01;;;;;;;21.63;5.37;;;;;;;;;;5068898;28;20025;-74
2023/08/07 08:23:27;;;;;;;19.23;5.20;;;;;;;;;;5068329;28;20079;-75
2023/08/07 08:25:53;;;;;;;18.93;5.60;;;;;;;;;;5068600;28;20021;-74
2023/08/07 08:28:19;;;;;;;40.20;5.80;;;;;;;;;;5081664;28;20032;-75
2023/08/07 08:30:45;;;;;;;15.73;6.17;;;;;;;;;;5067372;28;20047;-74
2023/08/07 08:33:14;;;;;;;16.20;5.73;;;;;;;;;;5070085;28;20060;-75
2023/08/07 08:35:40;;;;;;;24.30;6.03;;;;;;;;;;5066950;28;20027;-75
2023/08/07 08:38:09;;;;;;;23.90;4.77;;;;;;;;;;5067231;28;20056;-74
2023/08/07 08:40:35;;;;;;;18.83;4.77;;;;;;;;;;5067527;28;20033;-74
2023/08/07 08:43:01;;;;;;;19.23;5.47;;;;;;;;;;5070390;28;20025;-74
2023/08/07 08:45:28;;;;;;;15.87;5.70;;;;;;;;;;5068534;28;20045;-76
2023/08/07 08:48:01;;;;;;;22.90;5.70;;;;;;;;;;5066194;28;20080;-74
2023/08/07 08:50:29;;;;;;;20.53;4.93;;;;;;;;;;5067409;28;20063;-74
2023/08/07 08:52:56;;;;;;;22.37;5.43;;;;;;;;;;5086381;28;20044;-74
2023/08/07 08:55:23;;;;;;;19.67;5.73;;;;;;;;;;5070262;28;20048;-76
2023/08/07 08:57:55;;;;;;;28.07;5.90;;;;;;;;;;5070887;28;20036;-74
2023/08/07 09:00:25;;;;;;;23.15;4.72;;;;;;;;;;5070563;28;20029;-75
2023/08/07 09:02:54;;;;;;;17.67;4.30;;;;;;;;;;5069665;28;20029;-75
2023/08/07 09:05:21;;;;;;;19.57;5.13;;;;;;;;;;5069766;28;20045;-76
2023/08/07 09:07:48;;;;;;;17.77;4.37;;;;;;;;;;5073083;28;20017;-76
2023/08/07 09:10:14;;;;;;;11.60;4.13;;;;;;;;;;5086743;28;20081;-75
2023/08/07 09:12:41;;;;;;;10.50;4.40;;;;;;;;;;5071432;28;20021;-75
2023/08/07 09:15:08;;;;;;;14.43;4.03;;;;;;;;;;5069366;28;20206;-74
2023/08/07 09:17:37;;;;;;;9.20;3.47;;;;;;;;;;5072628;28;20037;-75
2023/08/07 09:20:04;;;;;;;15.45;3.55;;;;;;;;;;5072735;28;20021;-75
2023/08/07 09:22:30;;;;;;;9.85;3.38;;;;;;;;;;5085611;28;20056;-76
2023/08/07 09:24:59;;;;;;;10.07;3.00;;;;;;;;;;5071816;28;20037;-74
2023/08/07 09:27:25;;;;;;;10.32;2.65;;;;;;;;;;5071191;28;20009;-74
2023/08/07 09:29:51;;;;;;;7.90;2.45;;;;;;;;;;5071227;28;20025;-76
2023/08/07 09:32:18;;;;;;;8.95;2.47;;;;;;;;;;5070382;28;20044;-75
2023/08/07 09:34:44;;;;;;;8.52;2.20;;;;;;;;;;5072200;28;20028;-75
2023/08/07 09:37:10;;;;;;;8.90;2.60;;;;;;;;;;5068874;28;20033;-77
2023/08/07 09:39:39;;;;;;;8.98;2.30;;;;;;;;;;5070449;28;20021;-77
2023/08/07 09:42:05;;;;;;;13.88;3.33;;;;;;;;;;5068435;28;20035;-75
2023/08/07 09:44:37;;;;;;;12.43;2.95;;;;;;;;;;5069960;28;20051;-75
2023/08/07 09:47:16;;;;;;;7.28;2.35;;;;;;;;;;5070609;28;20025;-74
2023/08/07 09:49:43;;;;;;;9.18;2.03;;;;;;;;;;5071264;28;20036;-74
2023/08/07 09:52:10;;;;;;;14.95;2.55;;;;;;;;;;5072834;28;20035;-75
2023/08/07 09:54:39;;;;;;;8.40;2.17;;;;;;;;;;5082766;28;20035;-74
2023/08/07 09:57:05;;;;;;;11.90;2.38;;;;;;;;;;5067714;28;20033;-75
2023/08/07 09:59:32;;;;;;;5.82;2.17;;;;;;;;;;5068468;28;20033;-75
2023/08/07 10:02:02;;;;;;;11.50;2.05;;;;;;;;;;5067976;28;20029;-75
2023/08/07 10:04:30;;;;;;;9.52;1.70;;;;;;;;;;5067891;28;20024;-75
2023/08/07 10:06:57;;;;;;;8.13;1.90;;;;;;;;;;5069246;28;20021;-76
2023/08/07 10:09:23;;;;;;;9.82;1.98;;;;;;;;;;5066368;28;20052;-75
2023/08/07 10:11:50;;;;;;;8.25;1.83;;;;;;;;;;5072033;28;20017;-77
2023/08/07 10:14:16;;;;;;;13.80;2.33;;;;;;;;;;5067545;28;20017;-75
2023/08/07 10:16:42;;;;;;;13.05;3.35;;;;;;;;;;5067264;28;20029;-75
2023/08/07 10:19:09;;;;;;;8.98;1.88;;;;;;;;;;5066054;28;20048;-76
2023/08/07 10:21:36;;;;;;;11.90;2.17;;;;;;;;;;5067081;28;20021;-75
2023/08/07 10:24:06;;;;;;;4.57;1.40;;;;;;;;;;5065284;28;20020;-75
2023/08/07 10:26:36;;;;;;;16.25;2.00;;;;;;;;;;5067315;28;20203;-75
2023/08/07 10:29:03;;;;;;;9.85;2.28;;;;;;;;;;5067264;28;20045;-75
2023/08/07 10:31:30;;;;;;;8.73;1.85;;;;;;;;;;5066762;28;20025;-74
2023/08/07 10:33:56;;;;;;;7.72;1.90;;;;;;;;;;5064480;28;20089;-77
2023/08/07 10:36:22;;;;;;;12.75;1.90;;;;;;;;;;5065539;28;20028;-76
2023/08/07 10:39:06;;;;;;;6.40;1.48;;;;;;;;;;5080810;28;20025;-75
2023/08/07 10:41:38;;;;;;;7.88;1.50;;;;;;;;;;5082074;28;20029;-75
2023/08/07 10:44:04;;;;;;;10.38;1.65;;;;;;;;;;5083426;28;20025;-76
2023/08/07 10:46:46;;;;;;;9.63;1.67;;;;;;;;;;5066479;28;20028;-75
2023/08/07 10:49:32;;;;;;;7.53;1.73;;;;;;;;;;5066786;28;20040;-76
2023/08/07 10:51:59;;;;;;;9.40;1.60;;;;;;;;;;5069938;28;20022;-75
2023/08/07 10:54:25;;;;;;;6.00;1.52;;;;;;;;;;5066163;28;20025;-75
2023/08/07 10:56:55;;;;;;;7.15;2.30;;;;;;;;;;5065674;28;20048;-76
2023/08/07 10:59:23;;;;;;;9.02;1.42;;;;;;;;;;5066807;28;20044;-75
2023/08/07 11:01:55;;;;;;;3.55;1.15;;;;;;;;;;5065759;28;20057;-76
2023/08/07 11:04:24;;;;;;;10.85;2.00;;;;;;;;;;5067821;28;20036;-75
2023/08/07 11:06:51;;;;;;;5.50;1.52;;;;;;;;;;5079580;28;20129;-75
2023/08/07 11:09:17;;;;;;;4.95;1.83;;;;;;;;;;5065837;28;20013;-76
2023/08/07 11:11:47;;;;;;;6.15;1.58;;;;;;;;;;5064971;28;20029;-76
2023/08/07 11:14:13;;;;;;;5.15;1.52;;;;;;;;;;5064189;28;20017;-76
2023/08/07 11:16:40;;;;;;;4.22;1.80;;;;;;;;;;5062964;28;20028;-74
2023/08/07 11:19:06;;;;;;;11.23;1.63;;;;;;;;;;5064108;28;20025;-76
2023/08/07 11:21:32;;;;;;;6.43;1.25;;;;;;;;;;5063456;28;20017;-75
2023/08/07 11:23:59;;;;;;;7.15;1.30;;;;;;;;;;5065182;28;20013;-75
2023/08/07 11:26:26;;;;;;;8.85;1.60;;;;;;;;;;5064847;28;20093;-76
2023/08/07 11:28:52;;;;;;;9.45;1.40;;;;;;;;;;5064218;28;20026;-75
2023/08/07 11:31:19;;;;;;;5.75;0.95;;;;;;;;;;5065700;28;20029;-76
2023/08/07 11:33:45;;;;;;;7.55;1.55;;;;;;;;;;5080300;28;20035;-76
2023/08/07 11:36:14;;;;;;;6.38;1.23;;;;;;;;;;5064240;28;20037;-75
2023/08/07 11:38:44;;;;;;;11.00;1.33;;;;;;;;;;5062819;28;20176;-77
2023/08/07 11:41:13;;;;;;;7.68;1.20;;;;;;;;;;5064210;28;20013;-77
2023/08/07 11:43:40;;;;;;;6.30;1.17;;;;;;;;;;5079712;28;20033;-76
2023/08/07 11:46:15;;;;;;;9.40;1.70;;;;;;;;;;5063208;28;20032;-76
2023/08/07 11:48:45;;;;;;;7.07;1.45;;;;;;;;;;5064832;28;20033;-76
2023/08/07 11:51:11;;;;;;;20.95;3.10;;;;;;;;;;5064232;28;20033;-76
2023/08/07 11:53:38;;;;;;;6.85;1.77;;;;;;;;;;5064048;28;20026;-76
2023/08/07 11:56:05;;;;;;;9.75;2.05;;;;;;;;;;5067394;28;20028;-76
2023/08/07 11:58:35;;;;;;;7.47;1.50;;;;;;;;;;5064068;28;20704;-76
2023/08/07 12:01:05;;;;;;;8.07;2.28;;;;;;;;;;5067738;28;20037;-76
2023/08/07 12:03:39;;;;;;;6.20;1.08;;;;;;;;;;5067992;28;20159;-76
2023/08/07 12:06:06;;;;;;;7.47;1.73;;;;;;;;;;5068376;28;20021;-75
2023/08/07 12:08:35;;;;;;;5.70;1.52;;;;;;;;;;5063524;28;20017;-76
2023/08/07 12:11:04;;;;;;;6.28;1.30;;;;;;;;;;5063536;28;20025;-76
2023/08/07 12:13:31;;;;;;;3.30;1.38;;;;;;;;;;5064909;28;20037;-77
2023/08/07 12:16:00;;;;;;;8.15;1.77;;;;;;;;;;5077442;28;20028;-76
2023/08/07 12:18:27;;;;;;;5.70;1.88;;;;;;;;;;5063823;28;20033;-76
2023/08/07 12:20:57;;;;;;;8.93;2.08;;;;;;;;;;5062103;28;20020;-76
2023/08/07 12:23:23;;;;;;;5.55;1.50;;;;;;;;;;5063007;28;20028;-76
2023/08/07 12:25:52;;;;;;;4.20;1.23;;;;;;;;;;5068411;28;20021;-75
2023/08/07 12:28:21;;;;;;;2.63;1.30;;;;;;;;;;5069220;28;20081;-75
2023/08/07 12:30:47;;;;;;;5.50;1.52;;;;;;;;;;5068795;28;20035;-75
2023/08/07 12:33:14;;;;;;;7.18;1.77;;;;;;;;;;5071471;28;20033;-76
2023/08/07 12:35:40;;;;;;;4.93;1.65;;;;;;;;;;5066041;28;20021;-75
2023/08/07 12:38:06;;;;;;;7.72;1.67;;;;;;;;;;5067979;28;20032;-75
2023/08/07 12:40:32;;;;;;;8.93;2.15;;;;;;;;;;5068337;28;20275;-75
2023/08/07 12:42:59;;;;;;;6.40;2.05;;;;;;;;;;5067156;28;20123;-74
2023/08/07 12:45:25;;;;;;;5.57;1.50;;;;;;;;;;5068464;28;20017;-75
2023/08/07 12:47:51;;;;;;;5.75;1.48;;;;;;;;;;5067733;28;20060;-76
2023/08/07 12:50:17;;;;;;;5.90;1.38;;;;;;;;;;5072151;28;20048;-75
2023/08/07 12:52:43;;;;;;;6.63;1.65;;;;;;;;;;5065440;28;20037;-75
2023/08/07 12:55:09;;;;;;;5.30;1.58;;;;;;;;;;5065891;28;20048;-76
2023/08/07 12:57:35;;;;;;;6.88;1.42;;;;;;;;;;5069056;28;20048;-75
2023/08/07 13:00:01;;;;;;;7.68;1.70;;;;;;;;;;5069308;28;20033;-77
2023/08/07 13:02:27;;;;;;;7.88;1.52;;;;;;;;;;5068053;28;20041;-74
2023/08/07 13:04:54;;;;;;;8.25;2.65;;;;;;;;;;5066682;28;20025;-78
2023/08/07 13:07:21;;;;;;;8.68;1.67;;;;;;;;;;5082323;28;20057;-76
2023/08/07 13:09:50;;;;;;;5.95;1.58;;;;;;;;;;5067634;28;20017;-75
2023/08/07 13:12:16;;;;;;;5.03;1.25;;;;;;;;;;5066393;28;20032;-76
2023/08/07 13:14:42;;;;;;;4.47;1.23;;;;;;;;;;5067653;28;20084;-76
2023/08/07 13:17:08;;;;;;;5.70;1.65;;;;;;;;;;5066189;28;20061;-76
2023/08/07 13:19:36;;;;;;;3.83;1.60;;;;;;;;;;5067951;28;20084;-76
2023/08/07 13:22:02;;;;;;;4.85;1.35;;;;;;;;;;5071042;28;20025;-76
2023/08/07 13:24:28;;;;;;;4.45;1.33;;;;;;;;;;5067540;28;20013;-76
2023/08/07 13:26:54;;;;;;;8.68;2.13;;;;;;;;;;5071546;28;20013;-75
2023/08/07 13:29:22;;;;;;;5.63;1.45;;;;;;;;;;5072849;28;20017;-79
2023/08/07 13:31:49;;;;;;;6.50;1.60;;;;;;;;;;5063911;28;20089;-76
2023/08/07 13:34:15;;;;;;;5.32;1.55;;;;;;;;;;5065036;28;20481;-79
2023/08/07 13:36:41;;;;;;;3.85;1.33;;;;;;;;;;5047235;28;20114;-79
2023/08/07 13:39:08;;;;;;;5.20;1.40;;;;;;;;;;5063828;28;20029;-75
2023/08/07 13:41:35;;;;;;;5.28;1.67;;;;;;;;;;5069264;28;20029;-76
2023/08/07 13:44:01;;;;;;;5.25;1.75;;;;;;;;;;5067655;28;20037;-76
2023/08/07 13:46:27;;;;;;;7.30;1.75;;;;;;;;;;5063959;28;20029;-76
2023/08/07 13:48:53;;;;;;;4.05;1.60;;;;;;;;;;5053944;28;20022;-77
2023/08/07 13:51:20;;;;;;;5.03;1.83;;;;;;;;;;5069056;28;20236;-76
2023/08/07 13:53:46;;;;;;;4.45;1.60;;;;;;;;;;5064656;28;20085;-76
2023/08/07 13:56:12;;;;;;;7.43;1.88;;;;;;;;;;5066577;28;20170;-77
2023/08/07 13:58:39;;;;;;;5.82;1.70;;;;;;;;;;5058203;28;20035;-77
2023/08/07 14:01:08;;;;;;;8.75;1.40;;;;;;;;;;5068537;28;20052;-77
2023/08/07 14:03:34;;;;;;;6.95;2.05;;;;;;;;;;5068587;28;20057;-77
2023/08/07 14:06:00;;;;;;;9.27;1.60;;;;;;;;;;5074309;28;20392;-77
2023/08/07 14:08:26;;;;;;;8.95;1.73;;;;;;;;;;5069013;28;20098;-77
2023/08/07 14:10:52;;;;;;;5.82;1.73;;;;;;;;;;5054794;28;20124;-79
2023/08/07 14:13:18;;;;;;;4.35;1.45;;;;;;;;;;5043895;28;20029;-81
2023/08/07 14:15:44;;;;;;;9.23;2.30;;;;;;;;;;5043801;28;20037;-80
2023/08/07 14:18:11;;;;;;;8.40;2.35;;;;;;;;;;5041405;28;20082;-81
2023/08/07 14:20:37;;;;;;;3.45;1.23;;;;;;;;;;5051941;28;20041;-77
2023/08/07 14:23:03;;;;;;;10.27;2.20;;;;;;;;;;5057141;28;20106;-80
2023/08/07 14:25:29;;;;;;;9.63;2.15;;;;;;;;;;5066751;28;20084;-74
2023/08/07 14:27:55;;;;;;;10.77;2.33;;;;;;;;;;5067728;28;20116;-77
2023/08/07 14:30:21;;;;;;;5.82;1.88;;;;;;;;;;5065655;28;20033;-74
2023/08/07 14:32:47;;;;;;;6.43;2.00;;;;;;;;;;5063951;28;20040;-75